sensor_id;sensor_type;location;lat;lon;timestamp;pressure;altitude;pressure_sealevel;temperature;humidity
22333;BME280;11334;36.986;-121.936;2023-07-16T00:00:10;100653.25;;;33.14;33.98
22333;BME280;11334;36.986;-121.936;2023-07-16T00:02:38;100661.06;;;32.94;34.24
22333;BME280;11334;36.986;-121.936;2023-07-16T00:05:04;100658.41;;;33.03;34.18
22333;BME280;11334;36.986;-121.936;2023-07-16T00:07:31;100648.94;;;33.09;34.21
22333;BME280;11334;36.986;-121.936;2023-07-16T00:09:58;100650.97;;;33.03;34.01
22333;BME280;11334;36.986;-121.936;2023-07-16T00:12:24;100652.84;;;32.94;34.32
22333;BME280;11334;36.986;-121.936;2023-07-16T00:14:50;100656.09;;;33.10;34.10
22333;BME280;11334;36.986;-121.936;2023-07-16T00:17:16;100656.91;;;32.97;34.29
22333;BME280;11334;36.986;-121.936;2023-07-16T00:19:43;100659.63;;;33.23;33.88
22333;BME280;11334;36.986;-121.936;2023-07-16T00:22:09;100653.22;;;33.01;34.44
22333;BME280;11334;36.986;-121.936;2023-07-16T00:24:35;100655.88;;;33.06;33.95
22333;BME280;11334;36.986;-121.936;2023-07-16T00:27:01;100662.22;;;32.75;34.36
22333;BME280;11334;36.986;-121.936;2023-07-16T00:29:29;100661.00;;;32.36;35.66
22333;BME280;11334;36.986;-121.936;2023-07-16T00:31:55;100658.66;;;32.30;35.36
22333;BME280;11334;36.986;-121.936;2023-07-16T00:34:21;100661.81;;;32.37;35.88
22333;BME280;11334;36.986;-121.936;2023-07-16T00:36:48;100664.34;;;32.65;34.76
22333;BME280;11334;36.986;-121.936;2023-07-16T00:39:14;100659.63;;;32.83;34.77
22333;BME280;11334;36.986;-121.936;2023-07-16T00:41:40;100648.84;;;33.00;34.84
22333;BME280;11334;36.986;-121.936;2023-07-16T00:44:06;100648.22;;;33.03;34.50
22333;BME280;11334;36.986;-121.936;2023-07-16T00:46:33;100639.88;;;33.08;34.54
22333;BME280;11334;36.986;-121.936;2023-07-16T00:48:59;100644.09;;;33.19;34.41
22333;BME280;11334;36.986;-121.936;2023-07-16T00:51:26;100642.78;;;33.30;34.46
22333;BME280;11334;36.986;-121.936;2023-07-16T00:53:52;100637.13;;;33.61;34.00
22333;BME280;11334;36.986;-121.936;2023-07-16T00:56:19;100641.16;;;33.90;33.17
22333;BME280;11334;36.986;-121.936;2023-07-16T00:58:45;100637.91;;;33.75;33.64
22333;BME280;11334;36.986;-121.936;2023-07-16T01:01:12;100636.09;;;34.06;33.18
22333;BME280;11334;36.986;-121.936;2023-07-16T01:03:38;100627.84;;;34.06;33.42
22333;BME280;11334;36.986;-121.936;2023-07-16T01:06:18;100630.16;;;33.90;33.65
22333;BME280;11334;36.986;-121.936;2023-07-16T01:11:18;100623.94;;;33.72;33.50
22333;BME280;11334;36.986;-121.936;2023-07-16T01:13:45;100628.59;;;33.98;33.22
22333;BME280;11334;36.986;-121.936;2023-07-16T01:16:21;100634.25;;;33.79;33.47
22333;BME280;11334;36.986;-121.936;2023-07-16T01:18:48;100624.47;;;33.74;33.34
22333;BME280;11334;36.986;-121.936;2023-07-16T01:21:16;100626.94;;;33.62;33.40
22333;BME280;11334;36.986;-121.936;2023-07-16T01:29:35;100631.06;;;32.84;34.49
22333;BME280;11334;36.986;-121.936;2023-07-16T01:32:04;100636.00;;;32.38;34.98
22333;BME280;11334;36.986;-121.936;2023-07-16T01:34:32;100639.34;;;32.16;35.42
22333;BME280;11334;36.986;-121.936;2023-07-16T01:37:01;100635.84;;;31.98;35.29
22333;BME280;11334;36.986;-121.936;2023-07-16T01:39:27;100628.22;;;31.12;36.79
22333;BME280;11334;36.986;-121.936;2023-07-16T01:41:54;100626.44;;;30.19;38.32
22333;BME280;11334;36.986;-121.936;2023-07-16T01:44:20;100622.94;;;29.75;38.91
22333;BME280;11334;36.986;-121.936;2023-07-16T01:47:11;100623.81;;;29.08;39.95
22333;BME280;11334;36.986;-121.936;2023-07-16T01:49:38;100615.19;;;28.67;41.33
22333;BME280;11334;36.986;-121.936;2023-07-16T01:52:06;100622.88;;;28.26;41.87
22333;BME280;11334;36.986;-121.936;2023-07-16T01:54:32;100609.22;;;28.26;42.13
22333;BME280;11334;36.986;-121.936;2023-07-16T01:56:58;100612.78;;;28.01;42.59
22333;BME280;11334;36.986;-121.936;2023-07-16T01:59:25;100609.16;;;27.57;43.79
22333;BME280;11334;36.986;-121.936;2023-07-16T02:01:51;100611.59;;;27.48;43.92
22333;BME280;11334;36.986;-121.936;2023-07-16T02:04:17;100618.50;;;27.05;45.11
22333;BME280;11334;36.986;-121.936;2023-07-16T02:06:44;100610.56;;;26.94;45.41
22333;BME280;11334;36.986;-121.936;2023-07-16T02:09:13;100622.63;;;26.67;46.28
22333;BME280;11334;36.986;-121.936;2023-07-16T02:11:39;100613.13;;;26.28;46.90
22333;BME280;11334;36.986;-121.936;2023-07-16T02:14:06;100615.28;;;25.95;48.57
22333;BME280;11334;36.986;-121.936;2023-07-16T02:16:32;100622.56;;;25.64;49.33
22333;BME280;11334;36.986;-121.936;2023-07-16T02:18:58;100628.09;;;25.26;50.23
22333;BME280;11334;36.986;-121.936;2023-07-16T02:21:24;100627.72;;;24.97;51.23
22333;BME280;11334;36.986;-121.936;2023-07-16T02:23:50;100633.09;;;24.92;51.52
22333;BME280;11334;36.986;-121.936;2023-07-16T02:26:17;100621.88;;;24.51;52.99
22333;BME280;11334;36.986;-121.936;2023-07-16T02:28:43;100629.16;;;24.29;54.37
22333;BME280;11334;36.986;-121.936;2023-07-16T02:31:09;100634.03;;;24.16;54.59
22333;BME280;11334;36.986;-121.936;2023-07-16T02:33:35;100632.56;;;23.92;55.75
22333;BME280;11334;36.986;-121.936;2023-07-16T02:36:01;100628.69;;;23.72;56.37
22333;BME280;11334;36.986;-121.936;2023-07-16T02:38:28;100631.13;;;23.46;57.30
22333;BME280;11334;36.986;-121.936;2023-07-16T02:40:54;100637.06;;;23.32;57.77
22333;BME280;11334;36.986;-121.936;2023-07-16T02:43:20;100631.25;;;23.12;58.21
22333;BME280;11334;36.986;-121.936;2023-07-16T02:45:46;100623.22;;;22.89;59.31
22333;BME280;11334;36.986;-121.936;2023-07-16T02:48:13;100628.03;;;22.87;59.52
22333;BME280;11334;36.986;-121.936;2023-07-16T02:50:39;100627.19;;;22.76;60.11
22333;BME280;11334;36.986;-121.936;2023-07-16T02:53:06;100633.09;;;22.61;61.25
22333;BME280;11334;36.986;-121.936;2023-07-16T02:55:34;100634.88;;;22.56;61.37
22333;BME280;11334;36.986;-121.936;2023-07-16T02:58:00;100640.28;;;22.45;62.17
22333;BME280;11334;36.986;-121.936;2023-07-16T03:00:32;100633.22;;;22.21;63.17
22333;BME280;11334;36.986;-121.936;2023-07-16T03:02:59;100641.66;;;22.13;63.44
22333;BME280;11334;36.986;-121.936;2023-07-16T03:05:26;100644.41;;;21.95;64.28
22333;BME280;11334;36.986;-121.936;2023-07-16T03:07:53;100647.59;;;21.92;64.61
22333;BME280;11334;36.986;-121.936;2023-07-16T03:10:20;100648.75;;;21.56;66.39
22333;BME280;11334;36.986;-121.936;2023-07-16T03:12:47;100652.19;;;21.63;65.98
22333;BME280;11334;36.986;-121.936;2023-07-16T03:15:13;100663.03;;;21.45;66.96
22333;BME280;11334;36.986;-121.936;2023-07-16T03:17:39;100664.47;;;21.30;68.11
22333;BME280;11334;36.986;-121.936;2023-07-16T03:20:06;100656.53;;;21.35;67.97
22333;BME280;11334;36.986;-121.936;2023-07-16T03:22:33;100649.09;;;21.30;67.71
22333;BME280;11334;36.986;-121.936;2023-07-16T03:24:59;100649.63;;;21.21;68.00
22333;BME280;11334;36.986;-121.936;2023-07-16T03:27:25;100660.50;;;21.15;68.68
22333;BME280;11334;36.986;-121.936;2023-07-16T03:29:51;100660.94;;;21.12;68.49
22333;BME280;11334;36.986;-121.936;2023-07-16T03:32:18;100651.38;;;20.98;69.04
22333;BME280;11334;36.986;-121.936;2023-07-16T03:34:44;100656.25;;;20.90;69.42
22333;BME280;11334;36.986;-121.936;2023-07-16T03:37:10;100646.44;;;20.95;69.35
22333;BME280;11334;36.986;-121.936;2023-07-16T03:39:36;100654.00;;;20.87;69.62
22333;BME280;11334;36.986;-121.936;2023-07-16T03:42:03;100650.94;;;20.83;69.69
22333;BME280;11334;36.986;-121.936;2023-07-16T03:44:29;100649.38;;;20.76;69.79
22333;BME280;11334;36.986;-121.936;2023-07-16T03:46:55;100652.91;;;20.52;70.84
22333;BME280;11334;36.986;-121.936;2023-07-16T03:49:22;100650.41;;;20.51;71.36
22333;BME280;11334;36.986;-121.936;2023-07-16T03:51:48;100645.47;;;20.48;71.41
22333;BME280;11334;36.986;-121.936;2023-07-16T03:54:14;100648.13;;;20.30;72.48
22333;BME280;11334;36.986;-121.936;2023-07-16T03:56:40;100643.22;;;20.27;72.66
22333;BME280;11334;36.986;-121.936;2023-07-16T03:59:06;100650.22;;;20.28;72.51
22333;BME280;11334;36.986;-121.936;2023-07-16T04:01:33;100657.97;;;20.18;72.88
22333;BME280;11334;36.986;-121.936;2023-07-16T04:03:59;100660.69;;;19.94;74.58
22333;BME280;11334;36.986;-121.936;2023-07-16T04:06:25;100657.38;;;19.92;74.88
22333;BME280;11334;36.986;-121.936;2023-07-16T04:08:51;100669.94;;;19.98;74.63
22333;BME280;11334;36.986;-121.936;2023-07-16T04:11:17;100662.94;;;19.97;74.94
22333;BME280;11334;36.986;-121.936;2023-07-16T04:13:44;100665.53;;;20.03;74.26
22333;BME280;11334;36.986;-121.936;2023-07-16T04:16:10;100673.25;;;20.00;74.44
22333;BME280;11334;36.986;-121.936;2023-07-16T04:18:36;100667.50;;;19.96;74.90
22333;BME280;11334;36.986;-121.936;2023-07-16T04:21:02;100674.34;;;19.93;75.24
22333;BME280;11334;36.986;-121.936;2023-07-16T04:23:29;100674.94;;;19.95;75.13
22333;BME280;11334;36.986;-121.936;2023-07-16T04:25:58;100684.88;;;19.94;74.82
22333;BME280;11334;36.986;-121.936;2023-07-16T04:28:24;100688.06;;;19.85;75.14
22333;BME280;11334;36.986;-121.936;2023-07-16T04:30:50;100699.06;;;19.77;75.46
22333;BME280;11334;36.986;-121.936;2023-07-16T04:33:16;100696.56;;;19.75;75.84
22333;BME280;11334;36.986;-121.936;2023-07-16T04:35:44;100708.59;;;19.66;75.98
22333;BME280;11334;36.986;-121.936;2023-07-16T04:38:11;100708.38;;;19.68;76.42
22333;BME280;11334;36.986;-121.936;2023-07-16T04:40:37;100710.25;;;19.67;76.51
22333;BME280;11334;36.986;-121.936;2023-07-16T04:43:03;100711.53;;;19.65;76.82
22333;BME280;11334;36.986;-121.936;2023-07-16T04:45:29;100710.34;;;19.55;77.25
22333;BME280;11334;36.986;-121.936;2023-07-16T04:47:55;100701.06;;;19.44;77.37
22333;BME280;11334;36.986;-121.936;2023-07-16T04:50:22;100706.25;;;19.39;78.26
22333;BME280;11334;36.986;-121.936;2023-07-16T04:52:48;100706.38;;;19.20;78.48
22333;BME280;11334;36.986;-121.936;2023-07-16T04:55:14;100717.88;;;19.33;78.46
22333;BME280;11334;36.986;-121.936;2023-07-16T04:57:41;100716.88;;;19.28;78.39
22333;BME280;11334;36.986;-121.936;2023-07-16T05:00:07;100711.94;;;19.12;79.53
22333;BME280;11334;36.986;-121.936;2023-07-16T05:02:34;100717.94;;;19.21;78.63
22333;BME280;11334;36.986;-121.936;2023-07-16T05:05:00;100719.78;;;19.20;78.81
22333;BME280;11334;36.986;-121.936;2023-07-16T05:07:26;100719.56;;;19.22;79.12
22333;BME280;11334;36.986;-121.936;2023-07-16T05:09:52;100717.97;;;19.08;79.82
22333;BME280;11334;36.986;-121.936;2023-07-16T05:12:18;100719.63;;;19.09;79.98
22333;BME280;11334;36.986;-121.936;2023-07-16T05:14:47;100720.03;;;19.06;80.52
22333;BME280;11334;36.986;-121.936;2023-07-16T05:17:14;100721.28;;;18.91;81.75
22333;BME280;11334;36.986;-121.936;2023-07-16T05:19:40;100727.28;;;18.93;81.13
22333;BME280;11334;36.986;-121.936;2023-07-16T05:22:06;100723.16;;;18.90;81.61
22333;BME280;11334;36.986;-121.936;2023-07-16T05:24:33;100720.28;;;18.92;81.49
22333;BME280;11334;36.986;-121.936;2023-07-16T05:26:59;100727.91;;;18.88;81.70
22333;BME280;11334;36.986;-121.936;2023-07-16T05:29:26;100725.00;;;18.90;81.73
22333;BME280;11334;36.986;-121.936;2023-07-16T05:31:53;100728.34;;;18.85;82.12
22333;BME280;11334;36.986;-121.936;2023-07-16T05:34:19;100730.19;;;18.85;82.03
22333;BME280;11334;36.986;-121.936;2023-07-16T05:36:45;100738.22;;;18.85;82.03
22333;BME280;11334;36.986;-121.936;2023-07-16T05:39:12;100733.28;;;18.82;82.59
22333;BME280;11334;36.986;-121.936;2023-07-16T05:41:41;100723.63;;;18.68;82.99
22333;BME280;11334;36.986;-121.936;2023-07-16T05:44:07;100728.34;;;18.60;84.19
22333;BME280;11334;36.986;-121.936;2023-07-16T05:46:34;100731.47;;;18.57;84.45
22333;BME280;11334;36.986;-121.936;2023-07-16T05:49:00;100730.63;;;18.50;85.18
22333;BME280;11334;36.986;-121.936;2023-07-16T05:51:27;100718.47;;;18.41;85.20
22333;BME280;11334;36.986;-121.936;2023-07-16T05:53:53;100723.63;;;18.49;85.45
22333;BME280;11334;36.986;-121.936;2023-07-16T05:56:19;100730.44;;;18.32;86.36
22333;BME280;11334;36.986;-121.936;2023-07-16T05:58:45;100729.41;;;18.39;86.75
22333;BME280;11334;36.986;-121.936;2023-07-16T06:01:12;100733.75;;;18.34;86.54
22333;BME280;11334;36.986;-121.936;2023-07-16T06:03:38;100728.78;;;18.37;86.29
22333;BME280;11334;36.986;-121.936;2023-07-16T06:06:04;100719.72;;;18.19;87.74
22333;BME280;11334;36.986;-121.936;2023-07-16T06:08:30;100728.81;;;18.31;87.21
22333;BME280;11334;36.986;-121.936;2023-07-16T06:10:57;100730.03;;;18.35;87.08
22333;BME280;11334;36.986;-121.936;2023-07-16T06:13:23;100730.25;;;18.34;87.03
22333;BME280;11334;36.986;-121.936;2023-07-16T06:15:49;100728.16;;;18.35;86.95
22333;BME280;11334;36.986;-121.936;2023-07-16T06:18:15;100730.88;;;18.29;86.84
22333;BME280;11334;36.986;-121.936;2023-07-16T06:20:45;100730.88;;;18.29;86.99
22333;BME280;11334;36.986;-121.936;2023-07-16T06:23:14;100735.38;;;18.22;86.89
22333;BME280;11334;36.986;-121.936;2023-07-16T06:25:42;100721.97;;;18.16;87.58
22333;BME280;11334;36.986;-121.936;2023-07-16T06:28:14;100730.44;;;18.19;87.19
22333;BME280;11334;36.986;-121.936;2023-07-16T06:30:41;100729.84;;;18.24;86.97
22333;BME280;11334;36.986;-121.936;2023-07-16T06:33:07;100733.31;;;18.18;87.06
22333;BME280;11334;36.986;-121.936;2023-07-16T06:35:33;100737.88;;;18.24;87.01
22333;BME280;11334;36.986;-121.936;2023-07-16T06:38:00;100737.22;;;18.15;87.21
22333;BME280;11334;36.986;-121.936;2023-07-16T06:40:26;100732.91;;;18.14;87.54
22333;BME280;11334;36.986;-121.936;2023-07-16T06:42:52;100733.72;;;18.08;87.97
22333;BME280;11334;36.986;-121.936;2023-07-16T06:45:18;100734.97;;;18.12;87.55
22333;BME280;11334;36.986;-121.936;2023-07-16T06:47:44;100729.59;;;18.12;87.97
22333;BME280;11334;36.986;-121.936;2023-07-16T06:50:11;100732.03;;;17.95;89.10
22333;BME280;11334;36.986;-121.936;2023-07-16T06:52:37;100738.00;;;17.90;88.83
22333;BME280;11334;36.986;-121.936;2023-07-16T06:55:03;100732.00;;;17.88;89.38
22333;BME280;11334;36.986;-121.936;2023-07-16T06:57:30;100731.22;;;17.94;89.58
22333;BME280;11334;36.986;-121.936;2023-07-16T06:59:56;100730.78;;;17.97;89.30
22333;BME280;11334;36.986;-121.936;2023-07-16T07:02:23;100720.47;;;17.88;89.57
22333;BME280;11334;36.986;-121.936;2023-07-16T07:04:50;100734.09;;;17.93;89.83
22333;BME280;11334;36.986;-121.936;2023-07-16T07:07:17;100730.38;;;17.87;90.02
22333;BME280;11334;36.986;-121.936;2023-07-16T07:09:46;100728.91;;;17.91;89.76
22333;BME280;11334;36.986;-121.936;2023-07-16T07:12:13;100730.78;;;17.91;89.65
22333;BME280;11334;36.986;-121.936;2023-07-16T07:14:39;100729.09;;;17.83;90.15
22333;BME280;11334;36.986;-121.936;2023-07-16T07:17:05;100728.66;;;17.73;89.91
22333;BME280;11334;36.986;-121.936;2023-07-16T07:19:31;100725.81;;;17.75;89.58
22333;BME280;11334;36.986;-121.936;2023-07-16T07:21:58;100730.75;;;17.78;89.88
22333;BME280;11334;36.986;-121.936;2023-07-16T07:24:24;100719.84;;;17.79;89.75
22333;BME280;11334;36.986;-121.936;2023-07-16T07:26:51;100723.09;;;17.69;89.86
22333;BME280;11334;36.986;-121.936;2023-07-16T07:29:17;100720.00;;;17.65;89.64
22333;BME280;11334;36.986;-121.936;2023-07-16T07:31:43;100721.66;;;17.60;89.26
22333;BME280;11334;36.986;-121.936;2023-07-16T07:34:09;100716.09;;;17.68;88.30
22333;BME280;11334;36.986;-121.936;2023-07-16T07:36:35;100711.56;;;17.62;88.21
22333;BME280;11334;36.986;-121.936;2023-07-16T07:39:02;100720.41;;;17.62;88.20
22333;BME280;11334;36.986;-121.936;2023-07-16T07:41:28;100722.47;;;17.67;87.96
22333;BME280;11334;36.986;-121.936;2023-07-16T07:43:54;100724.53;;;17.71;87.86
22333;BME280;11334;36.986;-121.936;2023-07-16T07:46:21;100718.19;;;17.72;87.42
22333;BME280;11334;36.986;-121.936;2023-07-16T07:48:47;100720.00;;;17.71;87.83
22333;BME280;11334;36.986;-121.936;2023-07-16T07:51:13;100711.16;;;17.71;88.54
22333;BME280;11334;36.986;-121.936;2023-07-16T07:53:39;100710.72;;;17.74;88.53
22333;BME280;11334;36.986;-121.936;2023-07-16T07:56:05;100715.88;;;17.69;89.32
22333;BME280;11334;36.986;-121.936;2023-07-16T07:58:31;100714.22;;;17.62;88.88
22333;BME280;11334;36.986;-121.936;2023-07-16T08:01:06;100700.63;;;17.57;89.03
22333;BME280;11334;36.986;-121.936;2023-07-16T08:03:33;100703.69;;;17.54;88.88
22333;BME280;11334;36.986;-121.936;2023-07-16T08:05:59;100701.00;;;17.54;88.63
22333;BME280;11334;36.986;-121.936;2023-07-16T08:08:26;100703.47;;;17.49;88.66
22333;BME280;11334;36.986;-121.936;2023-07-16T08:10:54;100702.41;;;17.43;88.57
22333;BME280;11334;36.986;-121.936;2023-07-16T08:13:21;100695.41;;;17.49;87.68
22333;BME280;11334;36.986;-121.936;2023-07-16T08:15:47;100694.22;;;17.58;87.34
22333;BME280;11334;36.986;-121.936;2023-07-16T08:18:13;100697.31;;;17.55;87.67
22333;BME280;11334;36.986;-121.936;2023-07-16T08:20:41;100705.53;;;17.53;88.35
22333;BME280;11334;36.986;-121.936;2023-07-16T08:23:07;100696.06;;;17.57;89.61
22333;BME280;11334;36.986;-121.936;2023-07-16T08:25:33;100697.31;;;17.61;89.81
22333;BME280;11334;36.986;-121.936;2023-07-16T08:28:02;100704.31;;;17.56;89.97
22333;BME280;11334;36.986;-121.936;2023-07-16T08:30:28;100710.94;;;17.60;90.62
22333;BME280;11334;36.986;-121.936;2023-07-16T08:32:55;100709.47;;;17.57;91.64
22333;BME280;11334;36.986;-121.936;2023-07-16T08:35:21;100711.16;;;17.65;93.17
22333;BME280;11334;36.986;-121.936;2023-07-16T08:37:47;100720.41;;;17.69;92.97
22333;BME280;11334;36.986;-121.936;2023-07-16T08:40:13;100716.50;;;17.71;93.28
22333;BME280;11334;36.986;-121.936;2023-07-16T08:42:40;100713.81;;;17.71;93.47
22333;BME280;11334;36.986;-121.936;2023-07-16T08:45:10;100713.19;;;17.69;93.60
22333;BME280;11334;36.986;-121.936;2023-07-16T08:47:37;100711.56;;;17.68;93.63
22333;BME280;11334;36.986;-121.936;2023-07-16T08:50:04;100697.13;;;17.69;94.06
22333;BME280;11334;36.986;-121.936;2023-07-16T08:52:30;100717.75;;;17.81;93.55
22333;BME280;11334;36.986;-121.936;2023-07-16T08:54:57;100719.44;;;17.82;93.46
22333;BME280;11334;36.986;-121.936;2023-07-16T08:57:23;100713.25;;;17.82;92.65
22333;BME280;11334;36.986;-121.936;2023-07-16T08:59:50;100703.53;;;17.74;93.61
22333;BME280;11334;36.986;-121.936;2023-07-16T09:02:20;100714.84;;;17.76;93.75
22333;BME280;11334;36.986;-121.936;2023-07-16T09:04:47;100718.78;;;17.74;94.24
22333;BME280;11334;36.986;-121.936;2023-07-16T09:07:15;100713.22;;;17.75;94.06
22333;BME280;11334;36.986;-121.936;2023-07-16T09:09:41;100717.34;;;17.78;94.03
22333;BME280;11334;36.986;-121.936;2023-07-16T09:12:12;100717.13;;;17.73;94.71
22333;BME280;11334;36.986;-121.936;2023-07-16T09:14:40;100721.25;;;17.75;94.39
22333;BME280;11334;36.986;-121.936;2023-07-16T09:17:07;100727.03;;;17.72;94.54
22333;BME280;11334;36.986;-121.936;2023-07-16T09:19:33;100721.03;;;17.71;94.67
22333;BME280;11334;36.986;-121.936;2023-07-16T09:22:00;100719.19;;;17.71;94.51
22333;BME280;11334;36.986;-121.936;2023-07-16T09:24:26;100719.19;;;17.65;95.11
22333;BME280;11334;36.986;-121.936;2023-07-16T09:26:53;100705.75;;;17.58;95.63
22333;BME280;11334;36.986;-121.936;2023-07-16T09:29:21;100715.06;;;17.69;95.92
22333;BME280;11334;36.986;-121.936;2023-07-16T09:31:58;100713.19;;;17.69;95.67
22333;BME280;11334;36.986;-121.936;2023-07-16T09:34:27;100715.06;;;17.62;95.94
22333;BME280;11334;36.986;-121.936;2023-07-16T09:36:53;100710.28;;;17.58;96.11
22333;BME280;11334;36.986;-121.936;2023-07-16T09:39:20;100713.38;;;17.61;96.54
22333;BME280;11334;36.986;-121.936;2023-07-16T09:41:48;100705.75;;;17.58;96.25
22333;BME280;11334;36.986;-121.936;2023-07-16T09:44:17;100705.97;;;17.57;96.70
22333;BME280;11334;36.986;-121.936;2023-07-16T09:46:45;100701.41;;;17.51;97.39
22333;BME280;11334;36.986;-121.936;2023-07-16T09:49:14;100693.59;;;17.49;97.67
22333;BME280;11334;36.986;-121.936;2023-07-16T09:51:42;100695.19;;;17.44;98.07
22333;BME280;11334;36.986;-121.936;2023-07-16T09:54:13;100698.72;;;17.44;98.42
22333;BME280;11334;36.986;-121.936;2023-07-16T09:56:52;100699.72;;;17.43;98.36
22333;BME280;11334;36.986;-121.936;2023-07-16T09:59:26;100692.69;;;17.30;99.27
22333;BME280;11334;36.986;-121.936;2023-07-16T10:01:54;100691.03;;;17.29;99.45
22333;BME280;11334;36.986;-121.936;2023-07-16T10:04:21;100690.84;;;17.30;99.58
22333;BME280;11334;36.986;-121.936;2023-07-16T10:06:52;100683.81;;;17.29;99.41
22333;BME280;11334;36.986;-121.936;2023-07-16T10:09:34;100680.53;;;17.34;99.46
22333;BME280;11334;36.986;-121.936;2023-07-16T10:12:27;100684.03;;;17.34;98.93
22333;BME280;11334;36.986;-121.936;2023-07-16T10:14:55;100677.84;;;17.34;98.79
22333;BME280;11334;36.986;-121.936;2023-07-16T10:17:30;100678.63;;;17.21;99.38
22333;BME280;11334;36.986;-121.936;2023-07-16T10:19:59;100671.16;;;17.10;99.72
22333;BME280;11334;36.986;-121.936;2023-07-16T10:22:35;100677.94;;;17.07;100.00
22333;BME280;11334;36.986;-121.936;2023-07-16T10:25:03;100676.13;;;17.13;99.95
22333;BME280;11334;36.986;-121.936;2023-07-16T10:27:32;100675.97;;;17.15;99.67
22333;BME280;11334;36.986;-121.936;2023-07-16T10:30:00;100673.88;;;17.17;99.77
22333;BME280;11334;36.986;-121.936;2023-07-16T10:32:31;100673.69;;;17.18;99.59
22333;BME280;11334;36.986;-121.936;2023-07-16T10:34:58;100671.66;;;17.20;99.36
22333;BME280;11334;36.986;-121.936;2023-07-16T10:37:25;100670.59;;;17.21;99.41
22333;BME280;11334;36.986;-121.936;2023-07-16T10:39:57;100662.78;;;17.20;99.58
22333;BME280;11334;36.986;-121.936;2023-07-16T10:42:25;100670.81;;;17.20;99.50
22333;BME280;11334;36.986;-121.936;2023-07-16T10:44:53;100652.22;;;17.12;100.00
22333;BME280;11334;36.986;-121.936;2023-07-16T10:47:24;100674.31;;;17.27;99.84
22333;BME280;11334;36.986;-121.936;2023-07-16T10:49:51;100673.09;;;17.29;99.37
22333;BME280;11334;36.986;-121.936;2023-07-16T10:52:18;100665.28;;;17.28;99.62
22333;BME280;11334;36.986;-121.936;2023-07-16T10:54:44;100667.16;;;17.27;99.36
22333;BME280;11334;36.986;-121.936;2023-07-16T10:57:12;100659.09;;;17.27;99.43
22333;BME280;11334;36.986;-121.936;2023-07-16T10:59:39;100659.69;;;17.23;100.00
22333;BME280;11334;36.986;-121.936;2023-07-16T11:02:15;100657.00;;;17.16;100.00
22333;BME280;11334;36.986;-121.936;2023-07-16T11:04:43;100662.97;;;17.18;100.00
22333;BME280;11334;36.986;-121.936;2023-07-16T11:07:11;100662.97;;;17.18;100.00
22333;BME280;11334;36.986;-121.936;2023-07-16T11:12:15;100642.31;;;17.06;100.00
22333;BME280;11334;36.986;-121.936;2023-07-16T11:14:49;100649.09;;;17.08;100.00
22333;BME280;11334;36.986;-121.936;2023-07-16T11:17:16;100651.56;;;17.04;100.00
22333;BME280;11334;36.986;-121.936;2023-07-16T11:19:47;100659.63;;;17.10;100.00
22333;BME280;11334;36.986;-121.936;2023-07-16T11:22:14;100661.72;;;17.14;100.00
22333;BME280;11334;36.986;-121.936;2023-07-16T11:24:45;100649.38;;;17.13;99.71
22333;BME280;11334;36.986;-121.936;2023-07-16T11:27:23;100654.72;;;17.13;100.00
22333;BME280;11334;36.986;-121.936;2023-07-16T11:29:54;100662.13;;;17.11;99.93
22333;BME280;11334;36.986;-121.936;2023-07-16T11:32:34;100654.47;;;17.08;100.00
22333;BME280;11334;36.986;-121.936;2023-07-16T11:35:03;100649.75;;;17.10;99.90
22333;BME280;11334;36.986;-121.936;2023-07-16T11:37:31;100657.41;;;17.13;100.00
22333;BME280;11334;36.986;-121.936;2023-07-16T11:39:59;100656.09;;;17.09;99.74
22333;BME280;11334;36.986;-121.936;2023-07-16T11:42:32;100655.09;;;17.10;99.95
22333;BME280;11334;36.986;-121.936;2023-07-16T11:44:59;100653.44;;;17.09;99.95
22333;BME280;11334;36.986;-121.936;2023-07-16T11:47:27;100655.09;;;17.10;99.67
22333;BME280;11334;36.986;-121.936;2023-07-16T11:49:53;100646.44;;;17.08;100.00
22333;BME280;11334;36.986;-121.936;2023-07-16T11:52:26;100644.78;;;17.08;99.95
22333;BME280;11334;36.986;-121.936;2023-07-16T11:54:53;100642.91;;;17.02;100.00
22333;BME280;11334;36.986;-121.936;2023-07-16T11:57:19;100634.22;;;16.93;100.00
22333;BME280;11334;36.986;-121.936;2023-07-16T11:59:46;100645.56;;;16.95;100.00
22333;BME280;11334;36.986;-121.936;2023-07-16T12:02:12;100648.25;;;16.95;100.00
22333;BME280;11334;36.986;-121.936;2023-07-16T12:04:39;100642.06;;;17.01;100.00
22333;BME280;11334;36.986;-121.936;2023-07-16T12:07:05;100644.34;;;16.98;100.00
22333;BME280;11334;36.986;-121.936;2023-07-16T12:09:31;100637.75;;;17.00;100.00
22333;BME280;11334;36.986;-121.936;2023-07-16T12:11:58;100643.50;;;16.97;100.00
22333;BME280;11334;36.986;-121.936;2023-07-16T12:14:25;100648.25;;;16.95;100.00
22333;BME280;11334;36.986;-121.936;2023-07-16T12:16:54;100651.94;;;16.94;100.00
22333;BME280;11334;36.986;-121.936;2023-07-16T12:19:20;100641.44;;;16.93;100.00
22333;BME280;11334;36.986;-121.936;2023-07-16T12:21:47;100653.56;;;16.89;100.00
22333;BME280;11334;36.986;-121.936;2023-07-16T12:24:13;100650.69;;;16.90;100.00
22333;BME280;11334;36.986;-121.936;2023-07-16T12:26:39;100661.00;;;16.93;100.00
22333;BME280;11334;36.986;-121.936;2023-07-16T12:29:06;100646.34;;;16.89;100.00
22333;BME280;11334;36.986;-121.936;2023-07-16T12:31:32;100653.78;;;16.94;100.00